Warren, ID (83671)

5:25 PM PDT on May 05, 2015 (GMT -0700)
MesoWest | | Change Station
CLOSE
Current Station
Personal Weather Station
Location: Warren, ID
Elevation: 6520 ft
Nearby Weather Stations

Elev 6520 ft 45.19 °N, 115.97 °W | Updated 8 hours ago

Clear
Clear
56 °F
Feels Like 56 °F
N
11
Wind Variable Wind from NNW
Gusts mph

Today
High -- | Low -- °F
--% Chance of Precip.
Yesterday
High -- | Low -- °F
Precip. -- in
5:25 AM 7:53 PM
Waning Gibbous, 96% visible
Pressure 29.79 in
Visibility 10.0 miles
Clouds Clear
Dew Point 27 °F
Humidity 33%
Rainfall in
Snow Depth Not available.
UV 3 out of 12
Pollen 10.10 out of 12
Air Quality Not available.
Flu Activity Sporadic
METAR KMYL 052351Z AUTO VRB06KT 10SM CLR 14/M03 A2984 RMK AO2 SLP087 T01391028 10150 20117 56009

More Conditions Fewer Conditions

Pressure 29.79 in
Visibility 10.0 miles
Clouds Clear
Dew Point 27 °F
Humidity 33%
Rainfall in
Snow Depth Not available.
UV 3 out of 12
Pollen 10.10 out of 12
Air Quality Not available.
Flu Activity Sporadic
METAR KMYL 052351Z AUTO VRB06KT 10SM CLR 14/M03 A2984 RMK AO2 SLP087 T01391028 10150 20117 56009

More Conditions Fewer Conditions

10-Day Weather Forecast

Almanac

Astronomy

May. 05, 2015 Rise Set
Actual Time
Civil Twilight
Nautical Twilight
Astronomical Twilight
Moon
Length of Visible Light
Length of Day
Tomorrow will be .
, % of the Moon is Illuminated

Today's Extremes

State Highs State Lows

Community

WunderPhotos

Upload Photos

1,819,022 photos uploaded!

WunderBlogs® & News

Nearby

Air Quality

  Air Quality AQ Index Pollutant
Not available.

Snow Depth

Station Depth Elevation

Earthquake Activity

City Distance Mag. Time & Date
Minimum magnitude displayed is 2.5.

Coastal Water Temperatures

Place Temperature

Stations

Nearby Weather Stations

Station Location Temp. Windchill Dew Point Humidity Wind Precip. Elev Updated Type